sensor_id;sensor_type;location;lat;lon;timestamp;temperature;humidity
18682;DHT22;9471;51.168;4.154;2022-10-16T00:00:36;15.70;99.90
18682;DHT22;9471;51.168;4.154;2022-10-16T00:03:04;15.80;99.90
18682;DHT22;9471;51.168;4.154;2022-10-16T00:05:38;15.90;99.90
18682;DHT22;9471;51.168;4.154;2022-10-16T00:08:05;15.90;99.90
18682;DHT22;9471;51.168;4.154;2022-10-16T00:10:33;16.00;99.90
18682;DHT22;9471;51.168;4.154;2022-10-16T00:13:01;15.90;99.90
18682;DHT22;9471;51.168;4.154;2022-10-16T00:15:28;15.80;99.90
18682;DHT22;9471;51.168;4.154;2022-10-16T00:17:55;15.70;99.90
18682;DHT22;9471;51.168;4.154;2022-10-16T00:20:22;15.70;99.90
18682;DHT22;9471;51.168;4.154;2022-10-16T00:22:49;15.70;99.90
18682;DHT22;9471;51.168;4.154;2022-10-16T00:25:16;15.80;99.90
18682;DHT22;9471;51.168;4.154;2022-10-16T00:27:43;15.70;99.90
18682;DHT22;9471;51.168;4.154;2022-10-16T00:30:11;15.60;99.90
18682;DHT22;9471;51.168;4.154;2022-10-16T00:32:38;15.60;99.90
18682;DHT22;9471;51.168;4.154;2022-10-16T00:35:06;15.50;99.90
18682;DHT22;9471;51.168;4.154;2022-10-16T00:37:33;15.50;99.90
18682;DHT22;9471;51.168;4.154;2022-10-16T00:40:00;15.40;99.90
18682;DHT22;9471;51.168;4.154;2022-10-16T00:42:27;15.40;99.90
18682;DHT22;9471;51.168;4.154;2022-10-16T00:44:55;15.40;99.90
18682;DHT22;9471;51.168;4.154;2022-10-16T00:47:26;15.40;99.90
18682;DHT22;9471;51.168;4.154;2022-10-16T00:49:59;15.30;99.90
18682;DHT22;9471;51.168;4.154;2022-10-16T00:52:27;15.40;99.90
18682;DHT22;9471;51.168;4.154;2022-10-16T00:54:55;15.40;99.90
18682;DHT22;9471;51.168;4.154;2022-10-16T00:57:23;15.50;99.90
18682;DHT22;9471;51.168;4.154;2022-10-16T00:59:50;15.40;99.90
18682;DHT22;9471;51.168;4.154;2022-10-16T01:02:17;15.30;99.90
18682;DHT22;9471;51.168;4.154;2022-10-16T01:04:48;15.40;99.90
18682;DHT22;9471;51.168;4.154;2022-10-16T01:07:24;15.40;99.90
18682;DHT22;9471;51.168;4.154;2022-10-16T01:10:02;15.40;99.90
18682;DHT22;9471;51.168;4.154;2022-10-16T01:12:38;15.40;99.90
18682;DHT22;9471;51.168;4.154;2022-10-16T01:15:14;15.40;99.90
18682;DHT22;9471;51.168;4.154;2022-10-16T01:17:49;15.30;99.90
18682;DHT22;9471;51.168;4.154;2022-10-16T01:20:26;15.30;99.90
18682;DHT22;9471;51.168;4.154;2022-10-16T01:23:04;15.30;99.90
18682;DHT22;9471;51.168;4.154;2022-10-16T01:25:42;15.30;99.90
18682;DHT22;9471;51.168;4.154;2022-10-16T01:28:15;15.20;99.90
18682;DHT22;9471;51.168;4.154;2022-10-16T01:30:45;15.20;99.90
18682;DHT22;9471;51.168;4.154;2022-10-16T01:33:16;15.20;99.90
18682;DHT22;9471;51.168;4.154;2022-10-16T01:35:47;15.20;99.90
18682;DHT22;9471;51.168;4.154;2022-10-16T01:38:18;15.20;99.90
18682;DHT22;9471;51.168;4.154;2022-10-16T01:40:50;15.20;99.90
18682;DHT22;9471;51.168;4.154;2022-10-16T01:43:22;15.30;99.90
18682;DHT22;9471;51.168;4.154;2022-10-16T01:45:52;15.30;99.90
18682;DHT22;9471;51.168;4.154;2022-10-16T01:48:20;15.20;99.90
18682;DHT22;9471;51.168;4.154;2022-10-16T01:50:54;15.20;99.90
18682;DHT22;9471;51.168;4.154;2022-10-16T01:53:22;15.20;99.90
18682;DHT22;9471;51.168;4.154;2022-10-16T01:55:52;15.00;99.90
18682;DHT22;9471;51.168;4.154;2022-10-16T01:58:25;15.00;99.90
18682;DHT22;9471;51.168;4.154;2022-10-16T02:00:56;15.00;99.90
18682;DHT22;9471;51.168;4.154;2022-10-16T02:03:26;15.00;99.90
18682;DHT22;9471;51.168;4.154;2022-10-16T02:05:54;15.10;99.90
18682;DHT22;9471;51.168;4.154;2022-10-16T02:08:23;15.10;99.90
18682;DHT22;9471;51.168;4.154;2022-10-16T02:10:51;15.30;99.90
18682;DHT22;9471;51.168;4.154;2022-10-16T02:13:22;15.20;99.90
18682;DHT22;9471;51.168;4.154;2022-10-16T02:15:52;15.00;99.90
18682;DHT22;9471;51.168;4.154;2022-10-16T02:18:19;15.00;99.90
18682;DHT22;9471;51.168;4.154;2022-10-16T02:20:51;15.00;99.90
18682;DHT22;9471;51.168;4.154;2022-10-16T02:23:24;15.00;99.90
18682;DHT22;9471;51.168;4.154;2022-10-16T02:25:54;15.10;99.90
18682;DHT22;9471;51.168;4.154;2022-10-16T02:28:24;15.00;99.90
18682;DHT22;9471;51.168;4.154;2022-10-16T02:30:58;15.00;99.90
18682;DHT22;9471;51.168;4.154;2022-10-16T02:33:27;15.10;99.90
18682;DHT22;9471;51.168;4.154;2022-10-16T02:35:55;15.00;99.90
18682;DHT22;9471;51.168;4.154;2022-10-16T02:38:24;15.00;99.90
18682;DHT22;9471;51.168;4.154;2022-10-16T02:40:52;14.90;99.90
18682;DHT22;9471;51.168;4.154;2022-10-16T02:43:19;14.80;99.90
18682;DHT22;9471;51.168;4.154;2022-10-16T02:45:46;14.70;99.90
18682;DHT22;9471;51.168;4.154;2022-10-16T02:48:14;14.80;99.90
18682;DHT22;9471;51.168;4.154;2022-10-16T02:50:41;14.90;99.90
18682;DHT22;9471;51.168;4.154;2022-10-16T02:53:08;14.90;99.90
18682;DHT22;9471;51.168;4.154;2022-10-16T02:55:35;14.90;99.90
18682;DHT22;9471;51.168;4.154;2022-10-16T02:58:02;14.90;99.90
18682;DHT22;9471;51.168;4.154;2022-10-16T03:00:29;14.90;99.90
18682;DHT22;9471;51.168;4.154;2022-10-16T03:02:56;15.00;99.90
18682;DHT22;9471;51.168;4.154;2022-10-16T03:05:24;14.80;99.90
18682;DHT22;9471;51.168;4.154;2022-10-16T03:07:51;14.80;99.90
18682;DHT22;9471;51.168;4.154;2022-10-16T03:10:18;14.80;99.90
18682;DHT22;9471;51.168;4.154;2022-10-16T03:12:45;14.80;99.90
18682;DHT22;9471;51.168;4.154;2022-10-16T03:15:12;14.80;99.90
18682;DHT22;9471;51.168;4.154;2022-10-16T03:17:39;14.80;99.90
18682;DHT22;9471;51.168;4.154;2022-10-16T03:20:07;14.80;99.90
18682;DHT22;9471;51.168;4.154;2022-10-16T03:22:35;14.90;99.90
18682;DHT22;9471;51.168;4.154;2022-10-16T03:25:02;14.90;99.90
18682;DHT22;9471;51.168;4.154;2022-10-16T03:27:29;14.90;99.90
18682;DHT22;9471;51.168;4.154;2022-10-16T03:29:57;15.00;99.90
18682;DHT22;9471;51.168;4.154;2022-10-16T03:32:24;15.00;99.90
18682;DHT22;9471;51.168;4.154;2022-10-16T03:34:51;15.00;99.90
18682;DHT22;9471;51.168;4.154;2022-10-16T03:37:19;14.90;99.90
18682;DHT22;9471;51.168;4.154;2022-10-16T03:39:50;14.80;99.90
18682;DHT22;9471;51.168;4.154;2022-10-16T03:42:17;14.80;99.90
18682;DHT22;9471;51.168;4.154;2022-10-16T03:44:44;14.90;99.90
18682;DHT22;9471;51.168;4.154;2022-10-16T03:47:11;14.90;99.90
18682;DHT22;9471;51.168;4.154;2022-10-16T03:49:38;14.90;99.90
18682;DHT22;9471;51.168;4.154;2022-10-16T03:52:05;14.80;99.90
18682;DHT22;9471;51.168;4.154;2022-10-16T03:54:32;14.80;99.90
18682;DHT22;9471;51.168;4.154;2022-10-16T03:57:00;14.70;99.90
18682;DHT22;9471;51.168;4.154;2022-10-16T03:59:27;14.70;99.90
18682;DHT22;9471;51.168;4.154;2022-10-16T04:01:54;14.90;99.90
18682;DHT22;9471;51.168;4.154;2022-10-16T04:04:21;14.80;99.90
18682;DHT22;9471;51.168;4.154;2022-10-16T04:06:48;14.70;99.90
18682;DHT22;9471;51.168;4.154;2022-10-16T04:09:15;14.60;99.90
18682;DHT22;9471;51.168;4.154;2022-10-16T04:11:41;14.70;99.90
18682;DHT22;9471;51.168;4.154;2022-10-16T04:14:10;14.70;99.90
18682;DHT22;9471;51.168;4.154;2022-10-16T04:16:37;14.70;99.90
18682;DHT22;9471;51.168;4.154;2022-10-16T04:19:04;14.70;99.90
18682;DHT22;9471;51.168;4.154;2022-10-16T04:21:31;14.70;99.90
18682;DHT22;9471;51.168;4.154;2022-10-16T04:23:58;14.70;99.90
18682;DHT22;9471;51.168;4.154;2022-10-16T04:26:25;14.70;99.90
18682;DHT22;9471;51.168;4.154;2022-10-16T04:28:51;14.70;99.90
18682;DHT22;9471;51.168;4.154;2022-10-16T04:31:21;14.70;99.90
18682;DHT22;9471;51.168;4.154;2022-10-16T04:33:48;14.80;99.90
18682;DHT22;9471;51.168;4.154;2022-10-16T04:36:15;14.70;99.90
18682;DHT22;9471;51.168;4.154;2022-10-16T04:38:41;14.80;99.90
18682;DHT22;9471;51.168;4.154;2022-10-16T04:41:08;14.70;99.90
18682;DHT22;9471;51.168;4.154;2022-10-16T04:43:35;14.70;99.90
18682;DHT22;9471;51.168;4.154;2022-10-16T04:46:02;14.70;99.90
18682;DHT22;9471;51.168;4.154;2022-10-16T04:48:31;14.70;99.90
18682;DHT22;9471;51.168;4.154;2022-10-16T04:50:58;14.70;99.90
18682;DHT22;9471;51.168;4.154;2022-10-16T04:53:25;14.60;99.90
18682;DHT22;9471;51.168;4.154;2022-10-16T04:55:53;14.60;99.90
18682;DHT22;9471;51.168;4.154;2022-10-16T04:58:20;14.60;99.90
18682;DHT22;9471;51.168;4.154;2022-10-16T05:00:47;14.60;99.90
18682;DHT22;9471;51.168;4.154;2022-10-16T05:03:14;14.60;99.90
18682;DHT22;9471;51.168;4.154;2022-10-16T05:05:44;14.60;99.90
18682;DHT22;9471;51.168;4.154;2022-10-16T05:08:12;14.60;99.90
18682;DHT22;9471;51.168;4.154;2022-10-16T05:10:41;14.50;99.90
18682;DHT22;9471;51.168;4.154;2022-10-16T05:13:08;14.50;99.90
18682;DHT22;9471;51.168;4.154;2022-10-16T05:15:35;14.50;99.90
18682;DHT22;9471;51.168;4.154;2022-10-16T05:18:02;14.50;99.90
18682;DHT22;9471;51.168;4.154;2022-10-16T05:20:29;14.50;99.90
18682;DHT22;9471;51.168;4.154;2022-10-16T05:22:57;14.60;99.90
18682;DHT22;9471;51.168;4.154;2022-10-16T05:25:24;14.50;99.90
18682;DHT22;9471;51.168;4.154;2022-10-16T05:27:51;14.50;99.90
18682;DHT22;9471;51.168;4.154;2022-10-16T05:30:18;14.50;99.90
18682;DHT22;9471;51.168;4.154;2022-10-16T05:32:47;14.50;99.90
18682;DHT22;9471;51.168;4.154;2022-10-16T05:35:14;14.50;99.90
18682;DHT22;9471;51.168;4.154;2022-10-16T05:37:42;14.50;99.90
18682;DHT22;9471;51.168;4.154;2022-10-16T05:40:11;14.60;99.90
18682;DHT22;9471;51.168;4.154;2022-10-16T05:42:38;14.60;99.90
18682;DHT22;9471;51.168;4.154;2022-10-16T05:45:06;14.60;99.90
18682;DHT22;9471;51.168;4.154;2022-10-16T05:47:34;14.60;99.90
18682;DHT22;9471;51.168;4.154;2022-10-16T05:50:02;14.60;99.90
18682;DHT22;9471;51.168;4.154;2022-10-16T05:52:30;14.70;99.90
18682;DHT22;9471;51.168;4.154;2022-10-16T05:54:59;14.70;99.90
18682;DHT22;9471;51.168;4.154;2022-10-16T05:57:28;14.80;99.90
18682;DHT22;9471;51.168;4.154;2022-10-16T05:59:55;14.80;99.90
18682;DHT22;9471;51.168;4.154;2022-10-16T06:02:22;14.80;99.90
18682;DHT22;9471;51.168;4.154;2022-10-16T06:04:49;14.90;99.90
18682;DHT22;9471;51.168;4.154;2022-10-16T06:07:18;14.90;99.90
18682;DHT22;9471;51.168;4.154;2022-10-16T06:09:48;15.00;99.90
18682;DHT22;9471;51.168;4.154;2022-10-16T06:12:15;15.00;99.90
18682;DHT22;9471;51.168;4.154;2022-10-16T06:14:44;15.00;99.90
18682;DHT22;9471;51.168;4.154;2022-10-16T06:17:12;15.10;99.90
18682;DHT22;9471;51.168;4.154;2022-10-16T06:19:39;15.10;99.90
18682;DHT22;9471;51.168;4.154;2022-10-16T06:22:06;15.00;99.90
18682;DHT22;9471;51.168;4.154;2022-10-16T06:24:33;15.10;99.90
18682;DHT22;9471;51.168;4.154;2022-10-16T06:27:00;15.00;99.90
18682;DHT22;9471;51.168;4.154;2022-10-16T06:29:27;15.00;99.90
18682;DHT22;9471;51.168;4.154;2022-10-16T06:31:55;14.90;99.90
18682;DHT22;9471;51.168;4.154;2022-10-16T06:34:22;14.90;99.90
18682;DHT22;9471;51.168;4.154;2022-10-16T06:36:49;14.80;99.90
18682;DHT22;9471;51.168;4.154;2022-10-16T06:39:16;14.80;99.90
18682;DHT22;9471;51.168;4.154;2022-10-16T06:41:43;14.90;99.90
18682;DHT22;9471;51.168;4.154;2022-10-16T06:44:10;14.90;99.90
18682;DHT22;9471;51.168;4.154;2022-10-16T06:46:37;14.90;99.90
18682;DHT22;9471;51.168;4.154;2022-10-16T06:49:05;14.90;99.90
18682;DHT22;9471;51.168;4.154;2022-10-16T06:51:32;14.90;99.90
18682;DHT22;9471;51.168;4.154;2022-10-16T06:54:01;14.90;99.90
18682;DHT22;9471;51.168;4.154;2022-10-16T06:56:29;14.90;99.90
18682;DHT22;9471;51.168;4.154;2022-10-16T06:58:56;15.00;99.90
18682;DHT22;9471;51.168;4.154;2022-10-16T07:01:24;15.00;99.90
18682;DHT22;9471;51.168;4.154;2022-10-16T07:03:51;15.00;99.90
18682;DHT22;9471;51.168;4.154;2022-10-16T07:06:21;15.10;99.90
18682;DHT22;9471;51.168;4.154;2022-10-16T07:08:49;15.10;99.90
18682;DHT22;9471;51.168;4.154;2022-10-16T07:11:18;15.10;99.90
18682;DHT22;9471;51.168;4.154;2022-10-16T07:13:46;15.20;99.90
18682;DHT22;9471;51.168;4.154;2022-10-16T07:16:15;15.10;99.90
18682;DHT22;9471;51.168;4.154;2022-10-16T07:18:43;15.10;99.90
18682;DHT22;9471;51.168;4.154;2022-10-16T07:21:12;15.10;99.90
18682;DHT22;9471;51.168;4.154;2022-10-16T07:23:43;15.10;99.90
18682;DHT22;9471;51.168;4.154;2022-10-16T07:26:11;15.10;99.90
18682;DHT22;9471;51.168;4.154;2022-10-16T07:28:38;15.10;99.90
18682;DHT22;9471;51.168;4.154;2022-10-16T07:31:08;15.10;99.90
18682;DHT22;9471;51.168;4.154;2022-10-16T07:33:37;15.10;99.90
18682;DHT22;9471;51.168;4.154;2022-10-16T07:36:05;15.20;99.90
18682;DHT22;9471;51.168;4.154;2022-10-16T07:38:32;15.20;99.90
18682;DHT22;9471;51.168;4.154;2022-10-16T07:41:02;15.30;99.90
18682;DHT22;9471;51.168;4.154;2022-10-16T07:43:30;15.40;99.90
18682;DHT22;9471;51.168;4.154;2022-10-16T07:45:57;15.40;99.90
18682;DHT22;9471;51.168;4.154;2022-10-16T07:48:27;15.50;99.90
18682;DHT22;9471;51.168;4.154;2022-10-16T07:50:57;15.60;99.90
18682;DHT22;9471;51.168;4.154;2022-10-16T07:53:24;15.60;99.90
18682;DHT22;9471;51.168;4.154;2022-10-16T07:55:51;15.60;99.90
18682;DHT22;9471;51.168;4.154;2022-10-16T07:58:20;15.70;99.90
18682;DHT22;9471;51.168;4.154;2022-10-16T08:00:47;15.80;99.90
18682;DHT22;9471;51.168;4.154;2022-10-16T08:03:14;15.80;99.90
18682;DHT22;9471;51.168;4.154;2022-10-16T08:05:41;15.80;99.90
18682;DHT22;9471;51.168;4.154;2022-10-16T08:08:12;15.90;99.90
18682;DHT22;9471;51.168;4.154;2022-10-16T08:10:39;16.00;99.90
18682;DHT22;9471;51.168;4.154;2022-10-16T08:13:06;16.10;99.90
18682;DHT22;9471;51.168;4.154;2022-10-16T08:15:35;16.20;99.90
18682;DHT22;9471;51.168;4.154;2022-10-16T08:18:03;16.30;99.90
18682;DHT22;9471;51.168;4.154;2022-10-16T08:20:31;16.40;99.90
18682;DHT22;9471;51.168;4.154;2022-10-16T08:22:59;16.40;99.90
18682;DHT22;9471;51.168;4.154;2022-10-16T08:25:27;16.50;99.90
18682;DHT22;9471;51.168;4.154;2022-10-16T08:27:54;16.50;99.90
18682;DHT22;9471;51.168;4.154;2022-10-16T08:30:23;16.60;99.90
18682;DHT22;9471;51.168;4.154;2022-10-16T08:32:52;16.60;99.90
18682;DHT22;9471;51.168;4.154;2022-10-16T08:35:19;16.80;99.90
18682;DHT22;9471;51.168;4.154;2022-10-16T08:37:46;16.70;99.90
18682;DHT22;9471;51.168;4.154;2022-10-16T08:40:18;16.70;99.90
18682;DHT22;9471;51.168;4.154;2022-10-16T08:45:50;16.70;99.90
18682;DHT22;9471;51.168;4.154;2022-10-16T08:48:24;16.70;99.90
18682;DHT22;9471;51.168;4.154;2022-10-16T08:50:52;16.80;99.90
18682;DHT22;9471;51.168;4.154;2022-10-16T08:53:24;16.90;99.90
18682;DHT22;9471;51.168;4.154;2022-10-16T08:55:53;16.80;99.90
18682;DHT22;9471;51.168;4.154;2022-10-16T08:58:22;16.80;99.90
18682;DHT22;9471;51.168;4.154;2022-10-16T09:00:53;16.80;99.90
18682;DHT22;9471;51.168;4.154;2022-10-16T09:03:41;17.00;99.90
18682;DHT22;9471;51.168;4.154;2022-10-16T09:06:22;17.00;99.90
18682;DHT22;9471;51.168;4.154;2022-10-16T09:09:01;16.90;99.90
18682;DHT22;9471;51.168;4.154;2022-10-16T09:11:38;16.90;99.90
18682;DHT22;9471;51.168;4.154;2022-10-16T09:14:20;17.00;99.90
18682;DHT22;9471;51.168;4.154;2022-10-16T09:16:52;17.10;99.90
18682;DHT22;9471;51.168;4.154;2022-10-16T09:19:26;17.20;99.90
18682;DHT22;9471;51.168;4.154;2022-10-16T09:21:55;17.30;99.90
18682;DHT22;9471;51.168;4.154;2022-10-16T09:24:25;17.50;99.90
18682;DHT22;9471;51.168;4.154;2022-10-16T09:26:52;17.40;99.90
18682;DHT22;9471;51.168;4.154;2022-10-16T09:29:21;17.40;99.90
18682;DHT22;9471;51.168;4.154;2022-10-16T09:31:50;17.50;99.90
18682;DHT22;9471;51.168;4.154;2022-10-16T09:34:27;17.50;99.90
18682;DHT22;9471;51.168;4.154;2022-10-16T09:36:57;17.60;99.90
18682;DHT22;9471;51.168;4.154;2022-10-16T09:39:25;17.40;99.90
18682;DHT22;9471;51.168;4.154;2022-10-16T09:41:52;17.50;99.90
18682;DHT22;9471;51.168;4.154;2022-10-16T09:44:23;17.40;99.90
18682;DHT22;9471;51.168;4.154;2022-10-16T09:47:01;17.60;99.90
18682;DHT22;9471;51.168;4.154;2022-10-16T09:49:30;17.60;99.90
18682;DHT22;9471;51.168;4.154;2022-10-16T09:52:04;17.60;99.90
18682;DHT22;9471;51.168;4.154;2022-10-16T09:54:31;17.80;99.90
18682;DHT22;9471;51.168;4.154;2022-10-16T09:57:04;17.70;99.90
18682;DHT22;9471;51.168;4.154;2022-10-16T09:59:31;17.50;99.90
18682;DHT22;9471;51.168;4.154;2022-10-16T10:02:03;17.70;99.90
18682;DHT22;9471;51.168;4.154;2022-10-16T10:04:43;18.00;99.90
18682;DHT22;9471;51.168;4.154;2022-10-16T10:07:18;18.10;99.90
18682;DHT22;9471;51.168;4.154;2022-10-16T10:09:46;18.30;99.90
18682;DHT22;9471;51.168;4.154;2022-10-16T10:12:21;18.20;99.90
18682;DHT22;9471;51.168;4.154;2022-10-16T10:14:50;18.30;99.90
18682;DHT22;9471;51.168;4.154;2022-10-16T10:17:19;18.30;99.90
18682;DHT22;9471;51.168;4.154;2022-10-16T10:19:51;18.00;99.90
18682;DHT22;9471;51.168;4.154;2022-10-16T10:22:23;18.20;99.90
18682;DHT22;9471;51.168;4.154;2022-10-16T10:25:14;17.90;99.90
18682;DHT22;9471;51.168;4.154;2022-10-16T10:27:50;18.20;99.90
18682;DHT22;9471;51.168;4.154;2022-10-16T10:30:24;18.40;99.90
18682;DHT22;9471;51.168;4.154;2022-10-16T10:33:03;18.60;99.90
18682;DHT22;9471;51.168;4.154;2022-10-16T10:35:42;18.60;99.90
18682;DHT22;9471;51.168;4.154;2022-10-16T10:38:24;18.50;99.90
18682;DHT22;9471;51.168;4.154;2022-10-16T10:41:02;18.70;99.90
18682;DHT22;9471;51.168;4.154;2022-10-16T10:43:45;19.00;99.90
18682;DHT22;9471;51.168;4.154;2022-10-16T10:46:20;19.10;99.90
18682;DHT22;9471;51.168;4.154;2022-10-16T10:49:09;19.30;99.90
18682;DHT22;9471;51.168;4.154;2022-10-16T10:51:43;19.40;99.90
18682;DHT22;9471;51.168;4.154;2022-10-16T10:54:16;19.50;99.90
18682;DHT22;9471;51.168;4.154;2022-10-16T10:56:49;19.60;99.90
18682;DHT22;9471;51.168;4.154;2022-10-16T11:02:22;19.80;99.90
18682;DHT22;9471;51.168;4.154;2022-10-16T11:05:13;19.60;99.90
18682;DHT22;9471;51.168;4.154;2022-10-16T11:07:48;19.30;99.90
18682;DHT22;9471;51.168;4.154;2022-10-16T11:10:19;19.40;99.90
18682;DHT22;9471;51.168;4.154;2022-10-16T11:12:49;19.20;99.90
18682;DHT22;9471;51.168;4.154;2022-10-16T11:15:21;19.40;99.90
18682;DHT22;9471;51.168;4.154;2022-10-16T11:17:53;19.60;99.90
18682;DHT22;9471;51.168;4.154;2022-10-16T11:20:23;19.70;99.90
18682;DHT22;9471;51.168;4.154;2022-10-16T11:22:56;19.90;99.90
18682;DHT22;9471;51.168;4.154;2022-10-16T11:25:26;20.10;99.90
18682;DHT22;9471;51.168;4.154;2022-10-16T11:27:56;20.20;99.90
18682;DHT22;9471;51.168;4.154;2022-10-16T11:30:27;20.10;99.90
18682;DHT22;9471;51.168;4.154;2022-10-16T11:35:50;19.90;99.90
18682;DHT22;9471;51.168;4.154;2022-10-16T11:38:26;20.00;99.90
18682;DHT22;9471;51.168;4.154;2022-10-16T11:40:56;19.90;99.90
18682;DHT22;9471;51.168;4.154;2022-10-16T11:43:28;19.60;99.90
18682;DHT22;9471;51.168;4.154;2022-10-16T11:46:01;19.70;99.90
18682;DHT22;9471;51.168;4.154;2022-10-16T11:48:33;19.80;99.90
18682;DHT22;9471;51.168;4.154;2022-10-16T11:51:06;20.10;99.90
18682;DHT22;9471;51.168;4.154;2022-10-16T11:53:42;20.40;99.90
18682;DHT22;9471;51.168;4.154;2022-10-16T11:56:13;20.40;99.90
18682;DHT22;9471;51.168;4.154;2022-10-16T11:58:47;20.40;99.90
18682;DHT22;9471;51.168;4.154;2022-10-16T12:01:20;20.40;99.90
18682;DHT22;9471;51.168;4.154;2022-10-16T12:03:58;20.40;99.90
18682;DHT22;9471;51.168;4.154;2022-10-16T12:06:33;20.40;99.90
18682;DHT22;9471;51.168;4.154;2022-10-16T12:09:03;20.40;99.90
18682;DHT22;9471;51.168;4.154;2022-10-16T12:11:38;20.50;99.90
18682;DHT22;9471;51.168;4.154;2022-10-16T12:14:20;20.50;99.90
18682;DHT22;9471;51.168;4.154;2022-10-16T12:16:53;20.60;99.90
18682;DHT22;9471;51.168;4.154;2022-10-16T12:19:21;20.60;99.90
18682;DHT22;9471;51.168;4.154;2022-10-16T12:21:50;20.50;99.90
18682;DHT22;9471;51.168;4.154;2022-10-16T12:24:32;20.10;99.90
18682;DHT22;9471;51.168;4.154;2022-10-16T12:27:00;20.10;99.90
18682;DHT22;9471;51.168;4.154;2022-10-16T12:29:34;19.90;99.90
18682;DHT22;9471;51.168;4.154;2022-10-16T12:32:04;20.20;99.90
18682;DHT22;9471;51.168;4.154;2022-10-16T12:34:38;20.30;99.90
18682;DHT22;9471;51.168;4.154;2022-10-16T12:37:12;20.30;99.90
18682;DHT22;9471;51.168;4.154;2022-10-16T12:39:41;20.40;99.90
18682;DHT22;9471;51.168;4.154;2022-10-16T12:42:22;20.50;99.90
18682;DHT22;9471;51.168;4.154;2022-10-16T12:44:49;20.70;99.90
18682;DHT22;9471;51.168;4.154;2022-10-16T12:47:34;20.70;99.90
18682;DHT22;9471;51.168;4.154;2022-10-16T12:50:03;20.90;99.90
18682;DHT22;9471;51.168;4.154;2022-10-16T12:52:49;21.00;99.90
18682;DHT22;9471;51.168;4.154;2022-10-16T12:55:18;21.00;99.90
18682;DHT22;9471;51.168;4.154;2022-10-16T12:58:09;21.00;99.90
18682;DHT22;9471;51.168;4.154;2022-10-16T13:00:44;21.20;99.90
18682;DHT22;9471;51.168;4.154;2022-10-16T13:06:17;21.30;99.90
18682;DHT22;9471;51.168;4.154;2022-10-16T13:09:12;21.30;99.90
18682;DHT22;9471;51.168;4.154;2022-10-16T13:12:09;21.20;99.90
18682;DHT22;9471;51.168;4.154;2022-10-16T13:15:00;21.20;99.90
18682;DHT22;9471;51.168;4.154;2022-10-16T13:17:35;21.10;99.90
18682;DHT22;9471;51.168;4.154;2022-10-16T13:20:16;21.10;99.90
18682;DHT22;9471;51.168;4.154;2022-10-16T13:22:54;21.10;99.90
18682;DHT22;9471;51.168;4.154;2022-10-16T13:25:32;21.20;99.90
18682;DHT22;9471;51.168;4.154;2022-10-16T13:28:04;21.40;99.90
18682;DHT22;9471;51.168;4.154;2022-10-16T13:30:36;21.50;99.90
18682;DHT22;9471;51.168;4.154;2022-10-16T13:33:06;21.50;99.90
18682;DHT22;9471;51.168;4.154;2022-10-16T13:35:35;21.60;99.90
18682;DHT22;9471;51.168;4.154;2022-10-16T13:38:12;21.50;99.90
18682;DHT22;9471;51.168;4.154;2022-10-16T13:40:49;21.50;99.90
18682;DHT22;9471;51.168;4.154;2022-10-16T13:43:18;21.60;99.90
18682;DHT22;9471;51.168;4.154;2022-10-16T13:45:53;21.50;99.90
18682;DHT22;9471;51.168;4.154;2022-10-16T13:48:20;21.50;99.90
18682;DHT22;9471;51.168;4.154;2022-10-16T13:50:58;21.40;99.90
18682;DHT22;9471;51.168;4.154;2022-10-16T13:53:26;21.40;99.90
18682;DHT22;9471;51.168;4.154;2022-10-16T13:55:53;21.50;99.90
18682;DHT22;9471;51.168;4.154;2022-10-16T13:58:21;21.50;99.90
18682;DHT22;9471;51.168;4.154;2022-10-16T14:00:59;21.70;99.90
18682;DHT22;9471;51.168;4.154;2022-10-16T14:03:27;21.70;99.90
18682;DHT22;9471;51.168;4.154;2022-10-16T14:05:56;21.70;99.90
18682;DHT22;9471;51.168;4.154;2022-10-16T14:08:25;21.50;99.90
18682;DHT22;9471;51.168;4.154;2022-10-16T14:10:54;21.60;99.90
18682;DHT22;9471;51.168;4.154;2022-10-16T14:13:29;21.60;99.90
18682;DHT22;9471;51.168;4.154;2022-10-16T14:15:57;21.60;99.90
18682;DHT22;9471;51.168;4.154;2022-10-16T14:18:27;21.50;99.90
18682;DHT22;9471;51.168;4.154;2022-10-16T14:20:55;21.30;99.90
18682;DHT22;9471;51.168;4.154;2022-10-16T14:23:30;21.20;99.90
18682;DHT22;9471;51.168;4.154;2022-10-16T14:26:06;21.10;99.90
18682;DHT22;9471;51.168;4.154;2022-10-16T14:28:36;21.10;99.90
18682;DHT22;9471;51.168;4.154;2022-10-16T14:31:25;21.20;99.90
18682;DHT22;9471;51.168;4.154;2022-10-16T14:33:52;21.30;99.90
18682;DHT22;9471;51.168;4.154;2022-10-16T14:36:19;21.50;99.90
18682;DHT22;9471;51.168;4.154;2022-10-16T14:38:52;21.50;99.90
18682;DHT22;9471;51.168;4.154;2022-10-16T14:41:22;21.50;99.90
18682;DHT22;9471;51.168;4.154;2022-10-16T14:43:53;21.50;99.90
18682;DHT22;9471;51.168;4.154;2022-10-16T14:46:22;21.50;99.90
18682;DHT22;9471;51.168;4.154;2022-10-16T14:48:58;21.50;99.90
18682;DHT22;9471;51.168;4.154;2022-10-16T14:51:27;21.20;99.90
18682;DHT22;9471;51.168;4.154;2022-10-16T14:53:54;21.30;99.90
18682;DHT22;9471;51.168;4.154;2022-10-16T14:56:22;21.10;99.90
18682;DHT22;9471;51.168;4.154;2022-10-16T14:58:51;21.10;99.90
18682;DHT22;9471;51.168;4.154;2022-10-16T15:01:19;21.30;99.90
18682;DHT22;9471;51.168;4.154;2022-10-16T15:03:46;21.40;99.90
18682;DHT22;9471;51.168;4.154;2022-10-16T15:06:14;21.30;99.90
18682;DHT22;9471;51.168;4.154;2022-10-16T15:08:42;21.10;99.90
18682;DHT22;9471;51.168;4.154;2022-10-16T15:11:10;21.10;99.90
18682;DHT22;9471;51.168;4.154;2022-10-16T15:13:38;21.20;99.90
18682;DHT22;9471;51.168;4.154;2022-10-16T15:16:10;21.10;99.90
18682;DHT22;9471;51.168;4.154;2022-10-16T15:18:37;21.10;99.90
18682;DHT22;9471;51.168;4.154;2022-10-16T15:21:04;20.90;99.90
18682;DHT22;9471;51.168;4.154;2022-10-16T15:23:31;20.80;99.90
18682;DHT22;9471;51.168;4.154;2022-10-16T15:25:58;20.80;99.90
18682;DHT22;9471;51.168;4.154;2022-10-16T15:28:26;20.90;99.90
18682;DHT22;9471;51.168;4.154;2022-10-16T15:30:54;20.90;99.90
18682;DHT22;9471;51.168;4.154;2022-10-16T15:33:25;20.80;99.90
18682;DHT22;9471;51.168;4.154;2022-10-16T15:35:54;20.80;99.90
18682;DHT22;9471;51.168;4.154;2022-10-16T15:38:22;20.70;99.90
18682;DHT22;9471;51.168;4.154;2022-10-16T15:40:49;20.60;99.90
18682;DHT22;9471;51.168;4.154;2022-10-16T15:43:17;20.70;99.90
18682;DHT22;9471;51.168;4.154;2022-10-16T15:45:44;20.60;99.90
18682;DHT22;9471;51.168;4.154;2022-10-16T15:48:12;20.70;99.90
18682;DHT22;9471;51.168;4.154;2022-10-16T15:50:41;20.70;99.90
18682;DHT22;9471;51.168;4.154;2022-10-16T15:53:08;20.60;99.90
18682;DHT22;9471;51.168;4.154;2022-10-16T15:55:35;20.60;99.90
18682;DHT22;9471;51.168;4.154;2022-10-16T15:58:03;20.50;99.90
18682;DHT22;9471;51.168;4.154;2022-10-16T16:00:31;20.40;99.90
18682;DHT22;9471;51.168;4.154;2022-10-16T16:02:58;20.40;99.90
18682;DHT22;9471;51.168;4.154;2022-10-16T16:05:25;20.40;99.90
18682;DHT22;9471;51.168;4.154;2022-10-16T16:07:54;20.30;99.90
18682;DHT22;9471;51.168;4.154;2022-10-16T16:10:21;20.30;99.90
18682;DHT22;9471;51.168;4.154;2022-10-16T16:12:49;20.20;99.90
18682;DHT22;9471;51.168;4.154;2022-10-16T16:15:18;20.10;99.90